createdAt,value
2022-09-09T00:00:55.249Z,0
2022-09-09T00:01:55.566Z,0
2022-09-09T00:02:57.679Z,0
2022-09-09T00:03:56.890Z,0
2022-09-09T00:04:58.387Z,0
2022-09-09T00:05:58.008Z,0
2022-09-09T00:06:58.646Z,0
2022-09-09T00:07:59.732Z,0
2022-09-09T00:08:59.376Z,0
2022-09-09T00:10:00.874Z,0
2022-09-09T00:11:00.784Z,0
2022-09-09T00:12:01.988Z,0
2022-09-09T00:13:01.601Z,0
2022-09-09T00:14:02.794Z,0
2022-09-09T00:15:03.138Z,0
2022-09-09T00:16:04.099Z,0
2022-09-09T00:17:04.852Z,0
2022-09-09T00:18:04.967Z,0
2022-09-09T00:19:05.891Z,0
2022-09-09T00:20:06.588Z,0
2022-09-09T00:21:07.501Z,0
2022-09-09T00:22:08.135Z,0
2022-09-09T00:23:09.402Z,0
2022-09-09T00:24:09.602Z,0
2022-09-09T00:25:09.516Z,0
2022-09-09T00:26:10.428Z,0
2022-09-09T00:27:11.349Z,0
2022-09-09T00:28:12.080Z,0
2022-09-09T00:29:12.675Z,0
2022-09-09T00:30:13.593Z,0
2022-09-09T00:31:15.149Z,0
2022-09-09T00:32:14.863Z,0
2022-09-09T00:33:19.664Z,0
2022-09-09T00:34:16.586Z,0
2022-09-09T00:35:16.504Z,0
2022-09-09T00:36:17.715Z,0
2022-09-09T00:37:18.052Z,0
2022-09-09T00:38:19.115Z,0
2022-09-09T00:39:19.043Z,0
2022-09-09T00:40:19.324Z,0
2022-09-09T00:41:19.558Z,0
2022-09-09T00:42:20.045Z,0
2022-09-09T00:43:19.959Z,0
2022-09-09T00:44:20.276Z,0
2022-09-09T00:45:21.502Z,0
2022-09-09T00:46:21.914Z,0
2022-09-09T00:47:22.365Z,0
2022-09-09T00:48:23.135Z,0
2022-09-09T00:49:24.657Z,0
2022-09-09T00:50:24.855Z,0
2022-09-09T00:51:25.773Z,0
2022-09-09T00:52:26.687Z,0
2022-09-09T00:53:27.646Z,0
2022-09-09T00:54:28.258Z,0
2022-09-09T00:55:28.880Z,0
2022-09-09T00:56:29.794Z,0
2022-09-09T00:57:30.000Z,0
2022-09-09T00:58:31.046Z,0
2022-09-09T00:59:34.126Z,0
2022-09-09T01:00:31.325Z,0
2022-09-09T01:01:31.933Z,0
2022-09-09T01:02:32.842Z,0
2022-09-09T01:03:33.892Z,0
2022-09-09T01:04:33.511Z,0
2022-09-09T01:05:34.428Z,0
2022-09-09T01:06:34.774Z,0
2022-09-09T01:07:35.682Z,0
2022-09-09T01:08:36.488Z,0
2022-09-09T01:09:36.508Z,0
2022-09-09T01:10:36.830Z,0
2022-09-09T01:11:37.442Z,0
2022-09-09T01:12:38.360Z,0
2022-09-09T01:13:38.259Z,0
2022-09-09T01:14:39.182Z,0
2022-09-09T01:15:39.671Z,0
2022-09-09T01:16:39.389Z,0
2022-09-09T01:17:39.738Z,0
2022-09-09T01:18:41.248Z,0
2022-09-09T01:19:40.744Z,0
2022-09-09T01:20:40.937Z,0
2022-09-09T01:21:41.281Z,0
2022-09-09T01:22:41.601Z,0
2022-09-09T01:23:43.157Z,0
2022-09-09T01:24:43.067Z,0
2022-09-09T01:25:43.284Z,0
2022-09-09T01:26:44.213Z,0
2022-09-09T01:27:45.154Z,0
2022-09-09T01:28:46.008Z,0
2022-09-09T01:29:47.495Z,0
2022-09-09T01:30:47.824Z,0
2022-09-09T01:31:48.089Z,0
2022-09-09T01:32:48.316Z,0
2022-09-09T01:33:48.542Z,0
2022-09-09T01:34:48.437Z,0
2022-09-09T01:35:49.114Z,0
2022-09-09T01:36:50.044Z,0
2022-09-09T01:37:51.237Z,0
2022-09-09T01:38:51.563Z,0
2022-09-09T01:39:52.759Z,0
2022-09-09T01:40:53.214Z,0
2022-09-09T01:41:54.115Z,0
2022-09-09T01:42:54.736Z,0
2022-09-09T01:43:55.374Z,0
2022-09-09T01:44:56.017Z,0
2022-09-09T01:45:57.542Z,0
2022-09-09T01:46:58.032Z,0
2022-09-09T01:47:58.948Z,0
2022-09-09T01:49:00.121Z,0
2022-09-09T01:50:00.025Z,0
2022-09-09T01:51:00.945Z,0
2022-09-09T01:52:01.857Z,0
2022-09-09T01:53:02.502Z,0
2022-09-09T01:54:03.470Z,0
2022-09-09T01:55:03.377Z,0
2022-09-09T01:56:04.875Z,0
2022-09-09T01:57:04.778Z,0
2022-09-09T01:58:05.426Z,0
2022-09-09T01:59:05.843Z,0
2022-09-09T02:00:06.176Z,0
2022-09-09T02:01:07.372Z,0
2022-09-09T02:02:07.381Z,0
2022-09-09T02:03:08.407Z,0
2022-09-09T02:04:09.634Z,0
2022-09-09T02:05:09.527Z,0
2022-09-09T02:06:10.743Z,0
2022-09-09T02:07:10.638Z,0
2022-09-09T02:08:11.554Z,0
2022-09-09T02:09:12.938Z,0
2022-09-09T02:10:13.125Z,0
2022-09-09T02:11:13.762Z,0
2022-09-09T02:12:14.978Z,0
2022-09-09T02:13:15.475Z,0
2022-09-09T02:14:15.396Z,0
2022-09-09T02:15:15.891Z,0
2022-09-09T02:16:15.925Z,0
2022-09-09T02:17:16.431Z,0
2022-09-09T02:18:17.342Z,0
2022-09-09T02:19:18.156Z,0
2022-09-09T02:20:18.495Z,0
2022-09-09T02:21:19.696Z,0
2022-09-09T02:22:19.622Z,0
2022-09-09T02:23:21.093Z,0
2022-09-09T02:24:21.182Z,0
2022-09-09T02:25:21.796Z,0
2022-09-09T02:26:22.713Z,0
2022-09-09T02:27:22.627Z,0
2022-09-09T02:28:23.539Z,0
2022-09-09T02:29:24.538Z,0
2022-09-09T02:30:25.341Z,0
2022-09-09T02:31:25.038Z,0
2022-09-09T02:32:25.678Z,0
2022-09-09T02:33:25.997Z,0
2022-09-09T02:34:26.940Z,0
2022-09-09T02:35:27.593Z,0
2022-09-09T02:36:28.500Z,0
2022-09-09T02:37:29.700Z,0
2022-09-09T02:38:30.325Z,0
2022-09-09T02:39:31.123Z,0
2022-09-09T02:40:31.276Z,0
2022-09-09T02:41:32.221Z,0
2022-09-09T02:42:32.447Z,0
2022-09-09T02:43:32.762Z,0
2022-09-09T02:44:33.380Z,0
2022-09-09T02:45:35.211Z,0
2022-09-09T02:46:34.887Z,0
2022-09-09T02:47:35.789Z,0
2022-09-09T02:48:36.500Z,0
2022-09-09T02:49:37.237Z,0
2022-09-09T02:50:37.176Z,0
2022-09-09T02:51:37.104Z,0
2022-09-09T02:52:37.726Z,0
2022-09-09T02:53:38.639Z,0
2022-09-09T02:54:38.936Z,0
2022-09-09T02:55:38.834Z,0
2022-09-09T02:56:40.056Z,0
2022-09-09T02:57:40.278Z,0
2022-09-09T02:58:41.149Z,0
2022-09-09T02:59:41.586Z,0
2022-09-09T03:00:42.223Z,0
2022-09-09T03:01:42.234Z,0
2022-09-09T03:02:43.286Z,0
2022-09-09T03:03:43.515Z,0
2022-09-09T03:04:44.473Z,0
2022-09-09T03:05:44.842Z,0
2022-09-09T03:06:45.757Z,0
2022-09-09T03:07:46.398Z,0
2022-09-09T03:08:55.058Z,0
2022-09-09T03:09:48.399Z,0
2022-09-09T03:10:48.287Z,0
2022-09-09T03:11:49.226Z,0
2022-09-09T03:12:49.160Z,0
2022-09-09T03:13:49.783Z,0
2022-09-09T03:14:50.707Z,0
2022-09-09T03:15:50.599Z,0
2022-09-09T03:16:51.414Z,0
2022-09-09T03:17:52.417Z,0
2022-09-09T03:18:52.317Z,0
2022-09-09T03:19:52.476Z,0
2022-09-09T03:20:52.519Z,0
2022-09-09T03:21:54.010Z,0
2022-09-09T03:22:53.337Z,0
2022-09-09T03:23:54.260Z,0
2022-09-09T03:24:55.802Z,0
2022-09-09T03:25:55.427Z,0
2022-09-09T03:26:56.340Z,0
2022-09-09T03:27:56.266Z,0
2022-09-09T03:30:58.624Z,0
2022-09-09T03:31:59.391Z,0
2022-09-09T03:32:59.647Z,0
2022-09-09T03:33:59.965Z,0
2022-09-09T03:35:01.474Z,0
2022-09-09T03:36:01.390Z,0
2022-09-09T03:37:02.012Z,0
2022-09-09T03:38:02.633Z,0
2022-09-09T03:39:04.214Z,0
2022-09-09T03:40:04.643Z,0
2022-09-09T03:41:04.744Z,0
2022-09-09T03:42:05.366Z,0
2022-09-09T03:43:05.299Z,0
2022-09-09T03:44:05.931Z,0
2022-09-09T03:45:06.282Z,0
2022-09-09T03:46:07.249Z,0
2022-09-09T03:47:07.988Z,0
2022-09-09T03:48:08.912Z,0
2022-09-09T03:49:09.557Z,0
2022-09-09T03:50:10.606Z,0
2022-09-09T03:51:10.645Z,0
2022-09-09T03:52:12.134Z,0
2022-09-09T03:53:12.877Z,0
2022-09-09T03:54:12.498Z,0
2022-09-09T03:55:13.449Z,0
2022-09-09T03:56:13.058Z,0
2022-09-09T03:57:13.950Z,0
2022-09-09T03:58:14.568Z,0
2022-09-09T03:59:15.757Z,0
2022-09-09T04:00:16.457Z,0
2022-09-09T04:01:17.667Z,0
2022-09-09T04:02:18.004Z,0
2022-09-09T04:03:19.100Z,0
2022-09-09T04:04:19.168Z,0
2022-09-09T04:05:20.100Z,0
2022-09-09T04:06:21.546Z,0
2022-09-09T04:07:20.446Z,0
2022-09-09T04:08:21.062Z,0
2022-09-09T04:09:22.272Z,0
2022-09-09T04:10:23.636Z,0
2022-09-09T04:11:23.813Z,0
2022-09-09T04:12:24.715Z,0
2022-09-09T04:13:24.926Z,0
2022-09-09T04:14:25.121Z,0
2022-09-09T04:15:26.037Z,0
2022-09-09T04:16:26.567Z,0
2022-09-09T04:17:26.053Z,0
2022-09-09T04:18:30.843Z,0
2022-09-09T04:19:27.456Z,0
2022-09-09T04:20:28.863Z,0
2022-09-09T04:21:28.205Z,0
2022-09-09T04:22:29.422Z,0
2022-09-09T04:23:29.618Z,0
2022-09-09T04:24:29.840Z,0
2022-09-09T04:25:30.386Z,0
2022-09-09T04:26:30.866Z,0
2022-09-09T04:27:30.480Z,0
2022-09-09T04:28:31.689Z,0
2022-09-09T04:29:31.916Z,0
2022-09-09T04:30:32.882Z,0
2022-09-09T04:31:33.690Z,0
2022-09-09T04:32:34.427Z,0
2022-09-09T04:33:39.551Z,0
2022-09-09T04:34:35.953Z,4
2022-09-09T04:35:36.867Z,4
2022-09-09T04:36:37.508Z,4
2022-09-09T04:37:38.426Z,0
2022-09-09T04:38:38.945Z,0
2022-09-09T04:39:38.683Z,0
2022-09-09T04:40:39.781Z,0
2022-09-09T04:41:41.044Z,4
2022-09-09T04:42:41.238Z,4
2022-09-09T04:43:41.741Z,4
2022-09-09T04:44:42.657Z,4
2022-09-09T04:45:43.257Z,4
2022-09-09T04:46:43.956Z,4
2022-09-09T04:47:45.449Z,4
2022-09-09T04:48:45.714Z,8
2022-09-09T04:49:46.346Z,8
2022-09-09T04:50:47.072Z,8
2022-09-09T04:51:47.709Z,8
2022-09-09T04:54:50.010Z,12
2022-09-09T04:58:52.605Z,12
2022-09-09T04:59:52.818Z,16
2022-09-09T05:00:53.727Z,16
2022-09-09T05:01:53.790Z,16
2022-09-09T05:02:54.295Z,16
2022-09-09T05:03:55.697Z,20
2022-09-09T05:04:55.592Z,20
2022-09-09T05:05:56.519Z,20
2022-09-09T05:06:57.150Z,20
2022-09-09T05:07:58.060Z,20
2022-09-09T05:08:58.978Z,24
2022-09-09T05:09:59.598Z,28
2022-09-09T05:11:00.014Z,24
2022-09-09T05:12:00.641Z,24
2022-09-09T05:13:01.242Z,24
2022-09-09T05:14:02.190Z,28
2022-09-09T05:15:02.683Z,24
2022-09-09T05:16:03.159Z,28
2022-09-09T05:17:03.748Z,24
2022-09-09T05:18:03.666Z,28
2022-09-09T05:19:04.563Z,28
2022-09-09T05:20:09.137Z,28
2022-09-09T05:21:06.000Z,28
2022-09-09T05:22:06.495Z,32
2022-09-09T05:23:06.834Z,36
2022-09-09T05:24:07.875Z,36
2022-09-09T05:25:08.224Z,40
2022-09-09T05:26:09.419Z,40
2022-09-09T05:27:10.280Z,44
2022-09-09T05:28:10.195Z,48
2022-09-09T05:29:11.447Z,52
2022-09-09T05:30:11.645Z,56
2022-09-09T05:31:12.473Z,60
2022-09-09T05:32:15.442Z,60
2022-09-09T05:33:13.784Z,64
2022-09-09T05:34:14.394Z,68
2022-09-09T05:35:15.032Z,68
2022-09-09T05:36:16.329Z,76
2022-09-09T05:37:15.653Z,88
2022-09-09T05:38:16.636Z,92
2022-09-09T05:39:17.553Z,88
2022-09-09T05:40:18.105Z,80
2022-09-09T05:41:18.913Z,76
2022-09-09T05:42:19.940Z,60
2022-09-09T05:43:20.128Z,52
2022-09-09T05:44:21.411Z,48
2022-09-09T05:45:21.360Z,48
2022-09-09T05:46:22.625Z,48
2022-09-09T05:47:22.690Z,48
2022-09-09T05:48:23.017Z,48
2022-09-09T05:49:23.922Z,48
2022-09-09T05:50:26.739Z,52
2022-09-09T05:51:25.661Z,52
2022-09-09T05:52:26.578Z,56
2022-09-09T05:53:26.506Z,56
2022-09-09T05:54:27.735Z,60
2022-09-09T05:55:28.934Z,60
2022-09-09T05:56:28.840Z,68
2022-09-09T05:57:30.035Z,68
2022-09-09T05:58:30.382Z,72
2022-09-09T05:59:31.732Z,72
2022-09-09T06:00:31.359Z,72
2022-09-09T06:01:32.204Z,64
2022-09-09T06:02:33.827Z,60
2022-09-09T06:03:33.135Z,52
2022-09-09T06:04:34.047Z,44
2022-09-09T06:05:34.670Z,40
2022-09-09T06:06:35.022Z,40
2022-09-09T06:07:35.941Z,36
2022-09-09T06:08:37.228Z,40
2022-09-09T06:09:37.213Z,40
2022-09-09T06:10:38.008Z,44
2022-09-09T06:11:38.748Z,48
2022-09-09T06:12:39.389Z,52
2022-09-09T06:13:40.589Z,60
2022-09-09T06:14:44.458Z,76
2022-09-09T06:15:40.772Z,96
2022-09-09T06:16:42.353Z,112
2022-09-09T06:17:42.717Z,124
2022-09-09T06:18:43.755Z,124
2022-09-09T06:19:44.671Z,116
2022-09-09T06:20:44.857Z,112
2022-09-09T06:21:45.408Z,104
2022-09-09T06:22:46.039Z,100
2022-09-09T06:23:46.657Z,96
2022-09-09T06:24:48.416Z,96
2022-09-09T06:25:48.614Z,100
2022-09-09T06:26:49.254Z,112
2022-09-09T06:27:49.146Z,112
2022-09-09T06:28:50.360Z,108
2022-09-09T06:29:51.593Z,104
2022-09-09T06:30:51.512Z,100
2022-09-09T06:31:52.410Z,100
2022-09-09T06:32:53.145Z,96
2022-09-09T06:33:54.059Z,96
2022-09-09T06:34:54.682Z,92
2022-09-09T06:35:55.599Z,88
2022-09-09T06:36:55.529Z,88
2022-09-09T06:37:56.726Z,84
2022-09-09T06:38:57.643Z,84
2022-09-09T06:39:58.840Z,84
2022-09-09T06:40:59.272Z,88
2022-09-09T06:42:00.262Z,92
2022-09-09T06:43:01.175Z,88
2022-09-09T06:44:02.381Z,76
2022-09-09T06:45:02.936Z,76
2022-09-09T06:46:02.844Z,80
2022-09-09T06:47:03.722Z,96
2022-09-09T06:48:03.978Z,116
2022-09-09T06:49:04.896Z,140
2022-09-09T06:50:05.239Z,156
2022-09-09T06:51:06.451Z,152
2022-09-09T06:52:07.806Z,136
2022-09-09T06:53:07.120Z,120
2022-09-09T06:54:07.749Z,108
2022-09-09T06:55:08.942Z,96
2022-09-09T06:56:09.885Z,84
2022-09-09T06:57:43.272Z,84
2022-09-09T06:58:10.893Z,84
2022-09-09T06:59:12.082Z,84
2022-09-09T07:00:12.620Z,92
2022-09-09T07:01:13.177Z,100
2022-09-09T07:02:14.176Z,112
2022-09-09T07:03:13.595Z,124
2022-09-09T07:04:14.592Z,136
2022-09-09T07:05:15.321Z,148
2022-09-09T07:06:16.524Z,160
2022-09-09T07:07:16.728Z,176
2022-09-09T07:08:16.941Z,192
2022-09-09T07:09:16.983Z,228
2022-09-09T07:10:18.309Z,272
2022-09-09T07:11:23.792Z,332
2022-09-09T07:12:20.122Z,376
2022-09-09T07:13:20.050Z,424
2022-09-09T07:14:20.945Z,468
2022-09-09T07:15:21.486Z,512
2022-09-09T07:16:21.977Z,528
2022-09-09T07:17:22.380Z,448
2022-09-09T07:18:23.312Z,300
2022-09-09T07:19:23.624Z,244
2022-09-09T07:20:24.834Z,208
2022-09-09T07:21:24.751Z,216
2022-09-09T07:22:25.506Z,220
2022-09-09T07:23:25.991Z,204
2022-09-09T07:24:26.188Z,180
2022-09-09T07:25:27.494Z,180
2022-09-09T07:26:28.407Z,164
2022-09-09T07:27:28.617Z,172
2022-09-09T07:28:28.514Z,188
2022-09-09T07:29:32.391Z,188
2022-09-09T07:30:35.616Z,168
2022-09-09T07:31:30.386Z,148
2022-09-09T07:32:30.835Z,148
2022-09-09T07:33:31.327Z,164
2022-09-09T07:34:31.042Z,184
2022-09-09T07:35:31.673Z,212
2022-09-09T07:36:38.922Z,212
2022-09-09T07:37:33.423Z,200
2022-09-09T07:38:33.329Z,176
2022-09-09T07:39:34.595Z,148
2022-09-09T07:40:34.679Z,136
2022-09-09T07:41:35.396Z,148
2022-09-09T07:42:37.299Z,164
2022-09-09T07:43:37.209Z,160
2022-09-09T07:44:38.423Z,140
2022-09-09T07:45:38.349Z,132
2022-09-09T07:46:39.632Z,132
2022-09-09T07:47:40.216Z,136
2022-09-09T07:48:40.607Z,144
2022-09-09T07:49:44.269Z,148
2022-09-09T07:50:41.588Z,148
2022-09-09T07:51:43.076Z,148
2022-09-09T07:52:43.657Z,136
2022-09-09T07:53:43.902Z,128
2022-09-09T07:54:44.252Z,124
2022-09-09T07:55:45.449Z,124
2022-09-09T07:56:46.277Z,120
2022-09-09T07:57:46.179Z,112
2022-09-09T07:58:49.372Z,100
2022-09-09T07:59:47.601Z,100
2022-09-09T08:00:47.819Z,96
2022-09-09T08:01:47.859Z,100
2022-09-09T08:02:48.089Z,104
2022-09-09T08:03:50.191Z,112
2022-09-09T08:04:49.361Z,120
2022-09-09T08:05:50.259Z,124
2022-09-09T08:06:51.481Z,132
2022-09-09T08:07:51.407Z,128
2022-09-09T08:08:51.888Z,128
2022-09-09T08:09:52.107Z,128
2022-09-09T08:10:53.041Z,120
2022-09-09T08:11:53.965Z,112
2022-09-09T08:13:24.632Z,100
2022-09-09T08:14:04.444Z,96
2022-09-09T08:14:56.669Z,88
2022-09-09T08:15:57.053Z,84
2022-09-09T08:17:01.157Z,84
2022-09-09T08:17:58.342Z,84
2022-09-09T08:18:58.529Z,84
2022-09-09T08:19:58.749Z,88
2022-09-09T08:20:59.258Z,92
2022-09-09T08:21:59.467Z,92
2022-09-09T08:22:59.909Z,92
2022-09-09T08:24:03.922Z,96
2022-09-09T08:25:01.116Z,100
2022-09-09T08:26:00.832Z,104
2022-09-09T08:27:02.024Z,108
2022-09-09T08:28:01.913Z,112
2022-09-09T08:29:02.850Z,112
2022-09-09T08:30:03.483Z,112
2022-09-09T08:31:05.032Z,112
2022-09-09T08:32:05.772Z,120
2022-09-09T08:33:06.205Z,120
2022-09-09T08:34:06.416Z,120
2022-09-09T08:35:14.181Z,124
2022-09-09T08:36:06.522Z,128
2022-09-09T08:37:06.861Z,128
2022-09-09T08:38:10.902Z,132
2022-09-09T08:39:08.308Z,140
2022-09-09T08:40:09.735Z,136
2022-09-09T08:41:09.364Z,136
2022-09-09T08:42:10.277Z,140
2022-09-09T08:43:10.997Z,140
2022-09-09T08:44:11.357Z,140
2022-09-09T08:45:11.834Z,140
2022-09-09T08:46:12.581Z,140
2022-09-09T08:47:12.633Z,140
2022-09-09T08:48:13.118Z,140
2022-09-09T08:49:14.038Z,140
2022-09-09T08:50:14.278Z,136
2022-09-09T08:51:14.198Z,132
2022-09-09T08:52:15.108Z,132
2022-09-09T08:53:15.560Z,136
2022-09-09T08:54:21.885Z,144
2022-09-09T08:55:17.308Z,148
2022-09-09T08:56:17.790Z,156
2022-09-09T08:57:17.103Z,156
2022-09-09T08:58:18.330Z,156
2022-09-09T08:59:18.823Z,152
2022-09-09T09:00:19.033Z,156
2022-09-09T09:01:19.402Z,152
2022-09-09T09:02:22.865Z,156
2022-09-09T09:03:20.447Z,160
2022-09-09T09:04:21.070Z,168
2022-09-09T09:05:21.230Z,172
2022-09-09T09:06:21.147Z,184
2022-09-09T09:07:22.363Z,204
2022-09-09T09:08:22.610Z,220
2022-09-09T09:09:22.227Z,248
2022-09-09T09:10:51.080Z,296
2022-09-09T09:11:24.604Z,312
2022-09-09T09:12:24.886Z,344
2022-09-09T09:13:24.938Z,368
2022-09-09T09:14:26.596Z,388
2022-09-09T09:15:27.327Z,404
2022-09-09T09:16:27.217Z,436
2022-09-09T09:17:27.174Z,464
2022-09-09T09:18:27.372Z,472
2022-09-09T09:19:28.008Z,464
2022-09-09T09:20:29.218Z,436
2022-09-09T09:21:29.114Z,420
2022-09-09T09:22:30.063Z,404
2022-09-09T09:23:31.099Z,416
2022-09-09T09:24:33.248Z,440
2022-09-09T09:25:31.570Z,476
2022-09-09T09:26:33.162Z,508
2022-09-09T09:27:33.206Z,540
2022-09-09T09:28:33.573Z,592
2022-09-09T09:29:36.548Z,640
2022-09-09T09:30:41.431Z,676
2022-09-09T09:31:36.945Z,656
2022-09-09T09:32:36.975Z,592
2022-09-09T09:33:37.329Z,500
2022-09-09T09:34:38.211Z,392
2022-09-09T09:35:47.107Z,292
2022-09-09T09:36:39.326Z,244
2022-09-09T09:40:16.610Z,272
2022-09-09T09:41:17.001Z,332
2022-09-09T09:42:18.952Z,416
2022-09-09T09:43:18.661Z,480
2022-09-09T09:44:19.299Z,516
2022-09-09T09:45:20.057Z,508
2022-09-09T09:46:28.973Z,464
2022-09-09T09:47:21.424Z,452
2022-09-09T09:48:25.255Z,456
2022-09-09T09:49:22.470Z,476
2022-09-09T09:50:23.134Z,500
2022-09-09T09:51:24.057Z,540
2022-09-09T09:52:24.673Z,592
2022-09-09T09:53:25.566Z,652
2022-09-09T09:54:26.852Z,700
2022-09-09T09:55:27.313Z,720
2022-09-09T09:56:26.945Z,708
2022-09-09T09:57:27.904Z,672
2022-09-09T09:58:29.994Z,636
2022-09-09T09:59:48.263Z,584
2022-09-09T10:00:30.263Z,560
2022-09-09T10:01:31.460Z,540
2022-09-09T10:02:31.493Z,520
2022-09-09T10:03:32.454Z,528
2022-09-09T10:04:32.647Z,552
2022-09-09T10:05:41.701Z,604
2022-09-09T10:06:33.623Z,636
2022-09-09T10:07:33.533Z,672
2022-09-09T10:08:34.828Z,704
2022-09-09T10:09:35.740Z,744
2022-09-09T10:10:35.979Z,756
2022-09-09T10:11:36.776Z,756
2022-09-09T10:12:37.703Z,736
2022-09-09T10:13:38.019Z,720
2022-09-09T10:14:38.955Z,708
2022-09-09T10:15:39.583Z,676
2022-09-09T10:16:40.353Z,612
2022-09-09T10:17:40.994Z,544
2022-09-09T10:18:42.294Z,496
2022-09-09T10:19:41.913Z,472
2022-09-09T10:20:43.397Z,476
2022-09-09T10:21:44.579Z,500
2022-09-09T10:22:44.067Z,528
2022-09-09T10:23:44.069Z,548
2022-09-09T10:24:44.486Z,564
2022-09-09T10:25:45.796Z,576
2022-09-09T10:26:46.010Z,564
2022-09-09T10:27:46.459Z,556
2022-09-09T10:28:47.780Z,556
2022-09-09T10:29:47.994Z,556
2022-09-09T10:30:48.564Z,548
2022-09-09T10:31:48.539Z,580
2022-09-09T10:32:49.045Z,596
2022-09-09T10:33:49.333Z,616
2022-09-09T10:34:49.823Z,632
2022-09-09T10:35:49.851Z,640
2022-09-09T10:36:51.040Z,648
2022-09-09T10:37:51.242Z,660
2022-09-09T10:38:51.858Z,676
2022-09-09T10:39:54.278Z,692
2022-09-09T10:40:53.567Z,716
2022-09-09T10:41:54.454Z,716
2022-09-09T10:42:54.701Z,712
2022-09-09T10:43:57.395Z,696
2022-09-09T10:44:55.191Z,660
2022-09-09T10:45:54.810Z,628
2022-09-09T10:46:56.418Z,616
2022-09-09T10:47:56.619Z,604
2022-09-09T10:48:57.848Z,592
2022-09-09T10:49:58.041Z,592
2022-09-09T10:51:20.287Z,580
2022-09-09T10:51:59.184Z,576
2022-09-09T10:53:00.481Z,568
2022-09-09T10:54:00.778Z,560
2022-09-09T10:55:00.394Z,560
2022-09-09T10:56:01.727Z,564
2022-09-09T10:57:02.935Z,576
2022-09-09T10:58:02.550Z,592
2022-09-09T10:59:03.184Z,612
2022-09-09T11:00:04.125Z,632
2022-09-09T11:01:09.371Z,644
2022-09-09T11:02:05.167Z,640
2022-09-09T11:03:05.663Z,628
2022-09-09T11:04:06.216Z,612
2022-09-09T11:05:06.452Z,608
2022-09-09T11:06:07.181Z,616
2022-09-09T11:07:11.042Z,636
2022-09-09T11:08:07.815Z,656
2022-09-09T11:09:08.834Z,676
2022-09-09T11:10:09.199Z,688
2022-09-09T11:11:09.615Z,672
2022-09-09T11:12:11.110Z,640
2022-09-09T11:13:11.607Z,612
2022-09-09T11:14:11.250Z,596
2022-09-09T11:15:12.463Z,588
2022-09-09T11:16:12.205Z,596
2022-09-09T11:17:13.948Z,608
2022-09-09T11:18:14.593Z,608
2022-09-09T11:19:15.838Z,600
2022-09-09T11:20:16.101Z,576
2022-09-09T11:21:16.716Z,552
2022-09-09T11:22:17.495Z,520
2022-09-09T11:23:17.900Z,496
2022-09-09T11:24:18.841Z,492
2022-09-09T11:25:18.478Z,500
2022-09-09T11:26:19.871Z,516
2022-09-09T11:27:19.344Z,528
2022-09-09T11:28:20.614Z,540
2022-09-09T11:29:20.435Z,544
2022-09-09T11:31:01.063Z,548
2022-09-09T11:31:22.390Z,548
2022-09-09T11:32:22.777Z,544
2022-09-09T11:33:23.417Z,548
2022-09-09T11:34:24.708Z,564
2022-09-09T11:35:25.051Z,576
2022-09-09T11:36:26.073Z,584
2022-09-09T11:37:25.420Z,580
2022-09-09T11:38:26.639Z,588
2022-09-09T11:39:26.552Z,592
2022-09-09T11:40:27.833Z,608
2022-09-09T11:41:32.891Z,632
2022-09-09T11:42:28.596Z,652
2022-09-09T11:43:29.512Z,676
2022-09-09T11:44:29.863Z,688
2022-09-09T11:45:29.650Z,684
2022-09-09T11:46:30.988Z,672
2022-09-09T11:47:31.654Z,660
2022-09-09T11:48:32.047Z,652
2022-09-09T11:49:33.277Z,652
2022-09-09T11:50:33.511Z,660
2022-09-09T11:51:34.703Z,676
2022-09-09T11:52:34.617Z,688
2022-09-09T11:53:35.597Z,700
2022-09-09T11:54:36.496Z,712
2022-09-09T11:55:37.117Z,716
2022-09-09T11:56:37.896Z,704
2022-09-09T11:57:38.494Z,708
2022-09-09T11:58:39.738Z,712
2022-09-09T11:59:40.074Z,720
2022-09-09T12:00:39.966Z,728
2022-09-09T12:01:40.862Z,732
2022-09-09T12:02:41.984Z,736
2022-09-09T12:03:41.759Z,740
2022-09-09T12:04:43.491Z,744
2022-09-09T12:05:43.448Z,740
2022-09-09T12:06:44.239Z,748
2022-09-09T12:07:44.878Z,780
2022-09-09T12:08:45.807Z,816
2022-09-09T12:09:46.403Z,848
2022-09-09T12:10:47.305Z,864
2022-09-09T12:11:48.232Z,872
2022-09-09T12:12:52.854Z,896
2022-09-09T12:13:49.068Z,920
2022-09-09T12:14:49.675Z,928
2022-09-09T12:15:50.844Z,912
2022-09-09T12:16:51.309Z,896
2022-09-09T12:17:51.605Z,868
2022-09-09T12:18:52.675Z,848
2022-09-09T12:19:52.978Z,832
2022-09-09T12:20:53.198Z,848
2022-09-09T12:21:53.687Z,892
2022-09-09T12:22:54.033Z,980
2022-09-09T12:23:54.927Z,1080
2022-09-09T12:24:56.040Z,1160
2022-09-09T12:25:56.387Z,1220
2022-09-09T12:26:57.442Z,1264
2022-09-09T12:27:58.059Z,1316
2022-09-09T12:28:58.979Z,1436
2022-09-09T12:29:59.468Z,2196
2022-09-09T12:30:59.905Z,3068
2022-09-09T12:31:59.949Z,5212
2022-09-09T12:33:00.609Z,2388
2022-09-09T12:34:01.851Z,2272
2022-09-09T12:35:02.094Z,2520
2022-09-09T12:36:02.014Z,2984
2022-09-09T12:37:04.766Z,1672
2022-09-09T12:38:03.442Z,1504
2022-09-09T12:39:04.122Z,1388
2022-09-09T12:40:04.355Z,1288
2022-09-09T12:41:04.828Z,1208
2022-09-09T12:42:05.492Z,1180
2022-09-09T12:43:06.132Z,1200
2022-09-09T12:44:06.766Z,1240
2022-09-09T12:45:07.424Z,1296
2022-09-09T12:46:08.319Z,1420
2022-09-09T12:47:08.446Z,1512
2022-09-09T12:48:09.353Z,1440
2022-09-09T12:49:10.574Z,1352
2022-09-09T12:50:10.939Z,1224
2022-09-09T12:51:11.860Z,1116
2022-09-09T12:52:12.797Z,1036
2022-09-09T12:53:13.712Z,996
2022-09-09T12:54:13.625Z,976
2022-09-09T12:55:14.536Z,972
2022-09-09T12:56:15.188Z,988
2022-09-09T12:57:15.665Z,1012
2022-09-09T12:58:16.301Z,1012
2022-09-09T12:59:17.218Z,1024
2022-09-09T13:00:17.133Z,1048
2022-09-09T13:01:18.728Z,1064
2022-09-09T13:02:19.608Z,1052
2022-09-09T13:03:19.954Z,1020
2022-09-09T13:04:19.886Z,976
2022-09-09T13:05:21.339Z,936
2022-09-09T13:06:23.661Z,912
2022-09-09T13:07:21.737Z,880
2022-09-09T13:08:22.113Z,844
2022-09-09T13:09:23.176Z,796
2022-09-09T13:11:00.433Z,728
2022-09-09T13:11:23.719Z,716
2022-09-09T13:12:25.223Z,688
2022-09-09T13:13:25.122Z,676
2022-09-09T13:14:26.709Z,672
2022-09-09T13:15:26.630Z,672
2022-09-09T13:16:27.556Z,660
2022-09-09T13:17:27.618Z,672
2022-09-09T13:18:28.814Z,684
2022-09-09T13:19:29.447Z,692
2022-09-09T13:20:29.676Z,696
2022-09-09T13:21:29.879Z,700
2022-09-09T13:22:29.794Z,708
2022-09-09T13:23:30.583Z,712
2022-09-09T13:24:30.803Z,712
2022-09-09T13:25:31.466Z,716
2022-09-09T13:26:31.816Z,712
2022-09-09T13:27:32.259Z,720
2022-09-09T13:28:40.136Z,732
2022-09-09T13:29:33.432Z,748
2022-09-09T13:30:34.322Z,780
2022-09-09T13:31:34.567Z,824
2022-09-09T13:32:35.766Z,868
2022-09-09T13:33:36.133Z,912
2022-09-09T13:34:36.629Z,932
2022-09-09T13:35:37.300Z,920
2022-09-09T13:36:37.511Z,896
2022-09-09T13:37:38.813Z,868
2022-09-09T13:38:39.158Z,836
2022-09-09T13:39:39.238Z,796
2022-09-09T13:40:39.506Z,756
2022-09-09T13:41:39.425Z,724
2022-09-09T13:42:40.368Z,704
2022-09-09T13:43:41.051Z,696
2022-09-09T13:44:42.555Z,688
2022-09-09T13:45:42.644Z,676
2022-09-09T13:46:43.189Z,672
2022-09-09T13:47:43.907Z,676
2022-09-09T13:48:43.801Z,688
2022-09-09T13:49:44.446Z,704
2022-09-09T13:50:45.437Z,720
2022-09-09T13:51:45.921Z,724
2022-09-09T13:52:45.518Z,720
2022-09-09T13:53:46.530Z,720
2022-09-09T13:54:46.141Z,720
2022-09-09T13:55:50.488Z,732
2022-09-09T13:56:48.159Z,752
2022-09-09T13:57:48.354Z,768
2022-09-09T13:58:49.254Z,780
2022-09-09T14:00:14.210Z,796
2022-09-09T14:00:50.803Z,800
2022-09-09T14:01:50.900Z,804
2022-09-09T14:02:51.264Z,800
2022-09-09T14:03:51.755Z,792
2022-09-09T14:04:51.968Z,784
2022-09-09T14:05:52.628Z,772
2022-09-09T14:06:53.145Z,768
2022-09-09T14:07:58.635Z,764
2022-09-09T14:08:53.541Z,760
2022-09-09T14:09:54.160Z,748
2022-09-09T14:10:54.364Z,716
2022-09-09T14:11:54.561Z,684
2022-09-09T14:12:54.491Z,648
2022-09-09T14:13:55.106Z,624
2022-09-09T14:14:56.001Z,608
2022-09-09T14:15:56.985Z,584
2022-09-09T14:16:57.680Z,572
2022-09-09T14:17:57.778Z,552
2022-09-09T14:18:59.402Z,528
2022-09-09T14:19:59.328Z,520
2022-09-09T14:21:00.552Z,512
2022-09-09T14:22:00.780Z,516
2022-09-09T14:23:03.460Z,516
2022-09-09T14:24:01.807Z,508
2022-09-09T14:25:02.438Z,508
2022-09-09T14:26:03.058Z,496
2022-09-09T14:27:04.254Z,488